sensor_id;sensor_type;location;lat;lon;timestamp;pressure;altitude;pressure_sealevel;temperature;humidity
19789;BME280;10054;59.332;18.244;2022-07-29T00:01:54;101658.69;;;11.81;91.33
19789;BME280;10054;59.332;18.244;2022-07-29T00:04:24;101657.05;;;11.79;91.37
19789;BME280;10054;59.332;18.244;2022-07-29T00:06:53;101665.11;;;11.76;91.36
19789;BME280;10054;59.332;18.244;2022-07-29T00:09:25;101656.55;;;11.71;91.46
19789;BME280;10054;59.332;18.244;2022-07-29T00:11:56;101661.61;;;11.67;91.67
19789;BME280;10054;59.332;18.244;2022-07-29T00:14:27;101655.85;;;11.67;91.89
19789;BME280;10054;59.332;18.244;2022-07-29T00:16:56;101660.36;;;11.65;91.65
19789;BME280;10054;59.332;18.244;2022-07-29T00:19:25;101664.02;;;11.63;91.51
19789;BME280;10054;59.332;18.244;2022-07-29T00:21:54;101657.48;;;11.61;91.53
19789;BME280;10054;59.332;18.244;2022-07-29T00:24:23;101658.95;;;11.58;91.89
19789;BME280;10054;59.332;18.244;2022-07-29T00:26:52;101660.44;;;11.55;92.13
19789;BME280;10054;59.332;18.244;2022-07-29T00:29:21;101661.36;;;11.54;92.13
19789;BME280;10054;59.332;18.244;2022-07-29T00:31:50;101655.30;;;11.52;91.86
19789;BME280;10054;59.332;18.244;2022-07-29T00:34:19;101655.69;;;11.53;91.72
19789;BME280;10054;59.332;18.244;2022-07-29T00:37:06;101660.59;;;11.52;91.64
19789;BME280;10054;59.332;18.244;2022-07-29T00:39:34;101656.77;;;11.49;91.20
19789;BME280;10054;59.332;18.244;2022-07-29T00:42:04;101655.53;;;11.47;91.23
19789;BME280;10054;59.332;18.244;2022-07-29T00:44:38;101650.47;;;11.43;91.50
19789;BME280;10054;59.332;18.244;2022-07-29T00:47:08;101652.80;;;11.40;91.76
19789;BME280;10054;59.332;18.244;2022-07-29T00:49:39;101648.05;;;11.38;91.82
19789;BME280;10054;59.332;18.244;2022-07-29T00:52:10;101648.59;;;11.36;91.67
19789;BME280;10054;59.332;18.244;2022-07-29T00:54:40;101646.81;;;11.37;91.51
19789;BME280;10054;59.332;18.244;2022-07-29T00:57:09;101643.54;;;11.32;91.50
19789;BME280;10054;59.332;18.244;2022-07-29T00:59:37;101644.55;;;11.29;91.87
19789;BME280;10054;59.332;18.244;2022-07-29T01:02:06;101643.84;;;11.26;92.13
19789;BME280;10054;59.332;18.244;2022-07-29T01:04:36;101642.20;;;11.23;92.42
19789;BME280;10054;59.332;18.244;2022-07-29T01:07:05;101638.00;;;11.19;92.55
19789;BME280;10054;59.332;18.244;2022-07-29T01:09:34;101643.75;;;11.18;92.67
19789;BME280;10054;59.332;18.244;2022-07-29T01:12:06;101646.07;;;11.16;92.70
19789;BME280;10054;59.332;18.244;2022-07-29T01:14:36;101645.79;;;11.13;92.68
19789;BME280;10054;59.332;18.244;2022-07-29T01:17:21;101645.86;;;11.12;92.61
19789;BME280;10054;59.332;18.244;2022-07-29T01:28:52;101644.05;;;11.04;92.72
19789;BME280;10054;59.332;18.244;2022-07-29T01:31:32;101636.28;;;11.01;92.49
19789;BME280;10054;59.332;18.244;2022-07-29T01:33:58;101637.03;;;10.94;91.97
19789;BME280;10054;59.332;18.244;2022-07-29T01:36:35;101637.19;;;10.91;92.35
19789;BME280;10054;59.332;18.244;2022-07-29T01:39:32;101637.72;;;10.89;92.68
19789;BME280;10054;59.332;18.244;2022-07-29T01:42:18;101640.43;;;10.88;92.61
19789;BME280;10054;59.332;18.244;2022-07-29T01:44:55;101643.07;;;10.88;92.36
19789;BME280;10054;59.332;18.244;2022-07-29T01:47:25;101646.64;;;10.86;92.20
19789;BME280;10054;59.332;18.244;2022-07-29T01:49:56;101648.89;;;10.85;92.45
19789;BME280;10054;59.332;18.244;2022-07-29T01:52:34;101643.68;;;10.84;92.80
19789;BME280;10054;59.332;18.244;2022-07-29T01:55:10;101644.22;;;10.82;93.04
19789;BME280;10054;59.332;18.244;2022-07-29T01:57:39;101646.53;;;10.79;93.22
19789;BME280;10054;59.332;18.244;2022-07-29T02:00:10;101643.19;;;10.76;93.37
19789;BME280;10054;59.332;18.244;2022-07-29T02:02:42;101642.47;;;10.72;93.69
19789;BME280;10054;59.332;18.244;2022-07-29T02:05:13;101648.42;;;10.67;93.95
19789;BME280;10054;59.332;18.244;2022-07-29T02:07:43;101647.32;;;10.63;93.95
19789;BME280;10054;59.332;18.244;2022-07-29T02:10:13;101645.68;;;10.60;93.96
19789;BME280;10054;59.332;18.244;2022-07-29T02:12:44;101649.31;;;10.58;93.86
19789;BME280;10054;59.332;18.244;2022-07-29T02:15:14;101646.36;;;10.55;93.99
19789;BME280;10054;59.332;18.244;2022-07-29T02:17:48;101650.84;;;10.53;94.17
19789;BME280;10054;59.332;18.244;2022-07-29T02:20:16;101648.20;;;10.53;94.09
19789;BME280;10054;59.332;18.244;2022-07-29T02:22:47;101649.98;;;10.52;94.01
19789;BME280;10054;59.332;18.244;2022-07-29T02:25:18;101649.45;;;10.54;94.09
19789;BME280;10054;59.332;18.244;2022-07-29T02:27:48;101648.53;;;10.56;94.14
19789;BME280;10054;59.332;18.244;2022-07-29T02:30:19;101646.67;;;10.58;94.28
19789;BME280;10054;59.332;18.244;2022-07-29T02:32:51;101644.89;;;10.58;94.29
19789;BME280;10054;59.332;18.244;2022-07-29T02:35:21;101651.42;;;10.60;94.32
19789;BME280;10054;59.332;18.244;2022-07-29T02:37:50;101655.31;;;10.61;94.37
19789;BME280;10054;59.332;18.244;2022-07-29T02:40:39;101650.10;;;10.60;94.48
19789;BME280;10054;59.332;18.244;2022-07-29T02:43:09;101650.03;;;10.61;94.52
19789;BME280;10054;59.332;18.244;2022-07-29T02:45:39;101649.10;;;10.62;94.31
19789;BME280;10054;59.332;18.244;2022-07-29T02:48:10;101644.29;;;10.62;94.21
19789;BME280;10054;59.332;18.244;2022-07-29T02:50:43;101652.59;;;10.63;94.21
19789;BME280;10054;59.332;18.244;2022-07-29T02:53:18;101657.41;;;10.63;94.28
19789;BME280;10054;59.332;18.244;2022-07-29T02:55:58;101656.16;;;10.62;94.45
19789;BME280;10054;59.332;18.244;2022-07-29T02:58:27;101653.92;;;10.63;94.51
19789;BME280;10054;59.332;18.244;2022-07-29T03:01:04;101657.88;;;10.63;94.32
19789;BME280;10054;59.332;18.244;2022-07-29T03:03:31;101663.48;;;10.65;94.28
19789;BME280;10054;59.332;18.244;2022-07-29T03:06:01;101664.59;;;10.70;94.06
19789;BME280;10054;59.332;18.244;2022-07-29T03:08:32;101665.77;;;10.73;94.05
19789;BME280;10054;59.332;18.244;2022-07-29T03:11:01;101666.94;;;10.76;93.96
19789;BME280;10054;59.332;18.244;2022-07-29T03:13:31;101664.72;;;11.04;94.35
19789;BME280;10054;59.332;18.244;2022-07-29T03:16:01;101666.58;;;11.64;94.02
19789;BME280;10054;59.332;18.244;2022-07-29T03:18:31;101664.36;;;12.24;92.36
19789;BME280;10054;59.332;18.244;2022-07-29T03:21:00;101670.52;;;12.89;90.50
19789;BME280;10054;59.332;18.244;2022-07-29T03:23:29;101672.64;;;13.53;87.80
19789;BME280;10054;59.332;18.244;2022-07-29T03:25:58;101669.42;;;13.85;83.95
19789;BME280;10054;59.332;18.244;2022-07-29T03:28:27;101671.52;;;13.87;83.44
19789;BME280;10054;59.332;18.244;2022-07-29T03:30:56;101674.45;;;13.89;83.92
19789;BME280;10054;59.332;18.244;2022-07-29T03:33:24;101675.54;;;14.08;83.74
19789;BME280;10054;59.332;18.244;2022-07-29T03:35:53;101673.73;;;14.30;81.03
19789;BME280;10054;59.332;18.244;2022-07-29T03:38:23;101673.73;;;14.30;81.03
19789;BME280;10054;59.332;18.244;2022-07-29T03:40:56;101678.85;;;14.33;80.99
19789;BME280;10054;59.332;18.244;2022-07-29T03:43:26;101677.62;;;14.31;80.83
19789;BME280;10054;59.332;18.244;2022-07-29T03:45:57;101673.26;;;14.30;81.27
19789;BME280;10054;59.332;18.244;2022-07-29T03:48:26;101680.27;;;14.31;81.44
19789;BME280;10054;59.332;18.244;2022-07-29T03:50:57;101670.41;;;14.33;81.84
19789;BME280;10054;59.332;18.244;2022-07-29T03:53:25;101667.77;;;14.40;82.56
19789;BME280;10054;59.332;18.244;2022-07-29T03:55:57;101671.78;;;14.55;82.73
19789;BME280;10054;59.332;18.244;2022-07-29T03:58:26;101668.92;;;14.72;82.71
19789;BME280;10054;59.332;18.244;2022-07-29T04:00:56;101675.12;;;14.92;83.01
19789;BME280;10054;59.332;18.244;2022-07-29T04:03:25;101672.03;;;15.12;82.65
19789;BME280;10054;59.332;18.244;2022-07-29T04:06:05;101676.16;;;15.31;83.05
19789;BME280;10054;59.332;18.244;2022-07-29T04:08:35;101677.78;;;15.53;83.19
19789;BME280;10054;59.332;18.244;2022-07-29T04:11:04;101682.11;;;15.81;83.01
19789;BME280;10054;59.332;18.244;2022-07-29T04:13:34;101681.40;;;16.04;82.09
19789;BME280;10054;59.332;18.244;2022-07-29T04:16:03;101678.96;;;16.27;82.45
19789;BME280;10054;59.332;18.244;2022-07-29T04:18:32;101677.44;;;16.48;81.52
19789;BME280;10054;59.332;18.244;2022-07-29T04:21:01;101682.23;;;16.68;80.67
19789;BME280;10054;59.332;18.244;2022-07-29T04:23:31;101680.70;;;16.90;80.72
19789;BME280;10054;59.332;18.244;2022-07-29T04:26:02;101682.62;;;17.12;79.92
19789;BME280;10054;59.332;18.244;2022-07-29T04:28:31;101677.53;;;17.32;79.20
19789;BME280;10054;59.332;18.244;2022-07-29T04:31:00;101677.75;;;17.53;78.57
19789;BME280;10054;59.332;18.244;2022-07-29T04:33:29;101671.80;;;17.73;77.77
19789;BME280;10054;59.332;18.244;2022-07-29T04:35:57;101678.63;;;17.94;77.05
19789;BME280;10054;59.332;18.244;2022-07-29T04:38:26;101682.44;;;18.14;76.72
19789;BME280;10054;59.332;18.244;2022-07-29T04:40:55;101685.75;;;18.34;75.67
19789;BME280;10054;59.332;18.244;2022-07-29T04:43:23;101680.53;;;18.50;75.32
19789;BME280;10054;59.332;18.244;2022-07-29T04:45:52;101686.49;;;18.64;74.41
19789;BME280;10054;59.332;18.244;2022-07-29T04:48:20;101679.80;;;18.81;74.34
19789;BME280;10054;59.332;18.244;2022-07-29T04:50:49;101678.08;;;18.97;73.42
19789;BME280;10054;59.332;18.244;2022-07-29T04:53:17;101683.52;;;19.12;73.12
19789;BME280;10054;59.332;18.244;2022-07-29T04:55:47;101679.84;;;19.24;73.00
19789;BME280;10054;59.332;18.244;2022-07-29T04:58:15;101677.83;;;19.37;72.13
19789;BME280;10054;59.332;18.244;2022-07-29T05:00:44;101676.21;;;19.46;71.13
19789;BME280;10054;59.332;18.244;2022-07-29T05:03:14;101679.39;;;19.51;71.43
19789;BME280;10054;59.332;18.244;2022-07-29T05:05:42;101679.98;;;19.55;71.08
19789;BME280;10054;59.332;18.244;2022-07-29T05:08:11;101679.70;;;19.63;71.03
19789;BME280;10054;59.332;18.244;2022-07-29T05:10:40;101682.23;;;19.71;69.99
19789;BME280;10054;59.332;18.244;2022-07-29T05:13:09;101682.07;;;19.78;69.91
19789;BME280;10054;59.332;18.244;2022-07-29T05:15:37;101681.22;;;19.77;69.52
19789;BME280;10054;59.332;18.244;2022-07-29T05:18:07;101684.16;;;19.74;69.15
19789;BME280;10054;59.332;18.244;2022-07-29T05:20:36;101680.73;;;19.78;69.48
19789;BME280;10054;59.332;18.244;2022-07-29T05:23:05;101683.95;;;19.66;65.49
19789;BME280;10054;59.332;18.244;2022-07-29T05:25:33;101685.58;;;19.46;68.79
19789;BME280;10054;59.332;18.244;2022-07-29T05:28:02;101684.83;;;19.61;69.47
19789;BME280;10054;59.332;18.244;2022-07-29T05:30:31;101683.51;;;19.55;68.95
19789;BME280;10054;59.332;18.244;2022-07-29T05:33:00;101688.56;;;19.69;70.13
19789;BME280;10054;59.332;18.244;2022-07-29T05:35:29;101689.23;;;19.83;68.53
19789;BME280;10054;59.332;18.244;2022-07-29T05:37:58;101691.44;;;19.78;68.32
19789;BME280;10054;59.332;18.244;2022-07-29T05:40:26;101688.84;;;19.61;68.12
19789;BME280;10054;59.332;18.244;2022-07-29T05:42:55;101689.92;;;19.64;70.10
19789;BME280;10054;59.332;18.244;2022-07-29T05:45:24;101694.84;;;19.80;70.77
19789;BME280;10054;59.332;18.244;2022-07-29T05:47:53;101693.45;;;19.91;68.96
19789;BME280;10054;59.332;18.244;2022-07-29T05:50:21;101695.38;;;19.94;68.21
19789;BME280;10054;59.332;18.244;2022-07-29T05:52:50;101702.38;;;19.80;68.79
19789;BME280;10054;59.332;18.244;2022-07-29T05:55:19;101702.69;;;19.92;67.41
19789;BME280;10054;59.332;18.244;2022-07-29T05:57:48;101698.08;;;19.89;66.17
19789;BME280;10054;59.332;18.244;2022-07-29T06:00:17;101697.24;;;19.51;65.43
19789;BME280;10054;59.332;18.244;2022-07-29T06:02:45;101700.08;;;19.38;68.70
19789;BME280;10054;59.332;18.244;2022-07-29T06:05:14;101701.80;;;19.33;67.93
19789;BME280;10054;59.332;18.244;2022-07-29T06:07:43;101703.75;;;19.31;68.53
19789;BME280;10054;59.332;18.244;2022-07-29T06:10:12;101703.01;;;19.35;66.30
19789;BME280;10054;59.332;18.244;2022-07-29T06:12:41;101704.69;;;19.53;66.27
19789;BME280;10054;59.332;18.244;2022-07-29T06:15:10;101704.05;;;19.60;64.58
19789;BME280;10054;59.332;18.244;2022-07-29T06:17:38;101706.62;;;19.45;63.32
19789;BME280;10054;59.332;18.244;2022-07-29T06:20:07;101709.89;;;19.60;63.67
19789;BME280;10054;59.332;18.244;2022-07-29T06:22:36;101713.48;;;19.76;62.81
19789;BME280;10054;59.332;18.244;2022-07-29T06:25:05;101718.94;;;19.80;59.28
19789;BME280;10054;59.332;18.244;2022-07-29T06:27:34;101717.01;;;19.76;62.00
19789;BME280;10054;59.332;18.244;2022-07-29T06:30:03;101717.96;;;19.81;58.77
19789;BME280;10054;59.332;18.244;2022-07-29T06:32:36;101721.64;;;19.74;58.41
19789;BME280;10054;59.332;18.244;2022-07-29T06:35:05;101723.32;;;19.81;60.64
19789;BME280;10054;59.332;18.244;2022-07-29T06:37:34;101728.44;;;19.78;54.88
19789;BME280;10054;59.332;18.244;2022-07-29T06:40:04;101730.32;;;19.93;57.73
19789;BME280;10054;59.332;18.244;2022-07-29T06:42:50;101720.59;;;20.07;55.43
19789;BME280;10054;59.332;18.244;2022-07-29T06:45:19;101726.45;;;20.07;53.14
19789;BME280;10054;59.332;18.244;2022-07-29T06:47:48;101727.66;;;20.08;53.32
19789;BME280;10054;59.332;18.244;2022-07-29T06:50:17;101731.87;;;20.01;50.09
19789;BME280;10054;59.332;18.244;2022-07-29T06:52:45;101730.27;;;20.04;53.02
19789;BME280;10054;59.332;18.244;2022-07-29T06:55:14;101729.78;;;20.05;51.02
19789;BME280;10054;59.332;18.244;2022-07-29T06:57:42;101728.80;;;20.21;51.85
19789;BME280;10054;59.332;18.244;2022-07-29T07:00:12;101727.20;;;20.24;52.71
19789;BME280;10054;59.332;18.244;2022-07-29T07:02:41;101728.53;;;20.24;50.77
19789;BME280;10054;59.332;18.244;2022-07-29T07:05:10;101742.48;;;20.39;49.79
19789;BME280;10054;59.332;18.244;2022-07-29T07:07:38;101733.46;;;20.40;47.97
19789;BME280;10054;59.332;18.244;2022-07-29T07:10:08;101738.66;;;20.05;46.98
19789;BME280;10054;59.332;18.244;2022-07-29T07:12:36;101734.26;;;20.25;48.89
19789;BME280;10054;59.332;18.244;2022-07-29T07:15:06;101735.88;;;20.43;49.44
19789;BME280;10054;59.332;18.244;2022-07-29T07:17:34;101737.71;;;20.42;47.57
19789;BME280;10054;59.332;18.244;2022-07-29T07:20:06;101735.69;;;20.29;46.34
19789;BME280;10054;59.332;18.244;2022-07-29T07:22:34;101735.86;;;20.22;47.76
19789;BME280;10054;59.332;18.244;2022-07-29T07:25:03;101728.50;;;20.09;48.38
19789;BME280;10054;59.332;18.244;2022-07-29T07:27:32;101729.32;;;20.15;48.61
19789;BME280;10054;59.332;18.244;2022-07-29T07:30:01;101727.06;;;20.25;49.87
19789;BME280;10054;59.332;18.244;2022-07-29T07:32:30;101728.23;;;20.32;49.47
19789;BME280;10054;59.332;18.244;2022-07-29T07:34:59;101730.66;;;20.56;49.75
19789;BME280;10054;59.332;18.244;2022-07-29T07:37:28;101726.78;;;20.55;49.84
19789;BME280;10054;59.332;18.244;2022-07-29T07:39:56;101723.47;;;20.57;48.59
19789;BME280;10054;59.332;18.244;2022-07-29T07:42:26;101718.95;;;20.57;48.93
19789;BME280;10054;59.332;18.244;2022-07-29T07:44:55;101712.30;;;20.52;50.04
19789;BME280;10054;59.332;18.244;2022-07-29T07:47:24;101714.94;;;20.57;50.67
19789;BME280;10054;59.332;18.244;2022-07-29T07:49:53;101717.26;;;20.72;49.52
19789;BME280;10054;59.332;18.244;2022-07-29T07:52:22;101716.15;;;20.84;49.65
19789;BME280;10054;59.332;18.244;2022-07-29T07:54:51;101715.52;;;20.76;50.71
19789;BME280;10054;59.332;18.244;2022-07-29T07:57:20;101715.83;;;20.52;50.27
19789;BME280;10054;59.332;18.244;2022-07-29T07:59:49;101716.90;;;20.34;50.87
19789;BME280;10054;59.332;18.244;2022-07-29T08:02:17;101714.25;;;20.29;51.56
19789;BME280;10054;59.332;18.244;2022-07-29T08:04:46;101716.74;;;20.21;52.60
19789;BME280;10054;59.332;18.244;2022-07-29T08:07:14;101721.58;;;20.27;52.85
19789;BME280;10054;59.332;18.244;2022-07-29T08:09:43;101715.86;;;20.26;53.21
19789;BME280;10054;59.332;18.244;2022-07-29T08:12:12;101715.77;;;20.22;52.73
19789;BME280;10054;59.332;18.244;2022-07-29T08:14:41;101721.42;;;20.13;53.29
19789;BME280;10054;59.332;18.244;2022-07-29T08:17:09;101730.03;;;20.01;53.55
19789;BME280;10054;59.332;18.244;2022-07-29T08:19:38;101725.59;;;19.91;54.15
19789;BME280;10054;59.332;18.244;2022-07-29T08:22:07;101726.38;;;19.76;54.64
19789;BME280;10054;59.332;18.244;2022-07-29T08:24:35;101725.04;;;19.76;54.78
19789;BME280;10054;59.332;18.244;2022-07-29T08:27:24;101726.72;;;19.83;54.55
19789;BME280;10054;59.332;18.244;2022-07-29T08:29:53;101729.60;;;19.91;54.34
19789;BME280;10054;59.332;18.244;2022-07-29T08:32:23;101725.04;;;20.03;53.35
19789;BME280;10054;59.332;18.244;2022-07-29T08:34:52;101727.52;;;20.10;52.97
19789;BME280;10054;59.332;18.244;2022-07-29T08:37:20;101726.67;;;20.09;53.42
19789;BME280;10054;59.332;18.244;2022-07-29T08:39:49;101730.07;;;20.11;53.54
19789;BME280;10054;59.332;18.244;2022-07-29T08:42:18;101720.05;;;20.19;53.16
19789;BME280;10054;59.332;18.244;2022-07-29T08:44:48;101717.61;;;20.37;52.49
19789;BME280;10054;59.332;18.244;2022-07-29T08:47:18;101718.69;;;20.45;51.64
19789;BME280;10054;59.332;18.244;2022-07-29T08:49:47;101720.70;;;20.53;50.58
19789;BME280;10054;59.332;18.244;2022-07-29T08:52:16;101722.67;;;20.66;51.44
19789;BME280;10054;59.332;18.244;2022-07-29T08:54:46;101722.76;;;20.70;51.18
19789;BME280;10054;59.332;18.244;2022-07-29T08:57:17;101725.53;;;20.84;50.89
19789;BME280;10054;59.332;18.244;2022-07-29T08:59:47;101724.86;;;20.91;49.62
19789;BME280;10054;59.332;18.244;2022-07-29T09:02:21;101723.80;;;21.13;48.68
19789;BME280;10054;59.332;18.244;2022-07-29T09:04:51;101724.42;;;21.11;48.09
19789;BME280;10054;59.332;18.244;2022-07-29T09:07:20;101721.25;;;21.12;45.52
19789;BME280;10054;59.332;18.244;2022-07-29T09:09:49;101726.62;;;21.12;47.66
19789;BME280;10054;59.332;18.244;2022-07-29T09:12:17;101730.94;;;20.93;47.57
19789;BME280;10054;59.332;18.244;2022-07-29T09:14:47;101720.45;;;21.06;48.38
19789;BME280;10054;59.332;18.244;2022-07-29T09:17:16;101725.69;;;21.22;48.38
19789;BME280;10054;59.332;18.244;2022-07-29T09:19:45;101716.11;;;21.39;46.51
19789;BME280;10054;59.332;18.244;2022-07-29T09:22:28;101725.86;;;21.69;46.48
19789;BME280;10054;59.332;18.244;2022-07-29T09:24:46;101717.09;;;21.96;46.13
19789;BME280;10054;59.332;18.244;2022-07-29T09:27:23;101722.76;;;22.12;44.89
19789;BME280;10054;59.332;18.244;2022-07-29T09:30:05;101709.66;;;22.23;44.30
19789;BME280;10054;59.332;18.244;2022-07-29T09:32:58;101700.80;;;22.26;44.33
19789;BME280;10054;59.332;18.244;2022-07-29T09:35:20;101701.36;;;22.44;45.33
19789;BME280;10054;59.332;18.244;2022-07-29T09:37:49;101701.66;;;22.41;44.52
19789;BME280;10054;59.332;18.244;2022-07-29T09:40:20;101701.18;;;22.55;45.01
19789;BME280;10054;59.332;18.244;2022-07-29T09:42:50;101703.64;;;22.39;44.97
19789;BME280;10054;59.332;18.244;2022-07-29T09:45:31;101704.22;;;22.33;45.43
19789;BME280;10054;59.332;18.244;2022-07-29T09:50:49;101702.27;;;22.02;45.56
19789;BME280;10054;59.332;18.244;2022-07-29T09:53:33;101702.31;;;21.96;46.09
19789;BME280;10054;59.332;18.244;2022-07-29T09:56:04;101701.77;;;22.02;46.41
19789;BME280;10054;59.332;18.244;2022-07-29T09:58:33;101704.80;;;21.84;45.89
19789;BME280;10054;59.332;18.244;2022-07-29T10:01:02;101710.17;;;21.84;46.60
19789;BME280;10054;59.332;18.244;2022-07-29T10:03:31;101705.49;;;21.95;44.47
19789;BME280;10054;59.332;18.244;2022-07-29T10:06:10;101706.08;;;22.09;44.72
19789;BME280;10054;59.332;18.244;2022-07-29T10:08:41;101710.45;;;21.90;42.95
19789;BME280;10054;59.332;18.244;2022-07-29T10:11:15;101714.83;;;21.91;44.38
19789;BME280;10054;59.332;18.244;2022-07-29T10:13:45;101705.30;;;21.64;44.67
19789;BME280;10054;59.332;18.244;2022-07-29T10:16:15;101710.45;;;21.71;45.43
19789;BME280;10054;59.332;18.244;2022-07-29T10:18:45;101713.28;;;21.70;45.36
19789;BME280;10054;59.332;18.244;2022-07-29T10:21:14;101710.66;;;21.54;44.81
19789;BME280;10054;59.332;18.244;2022-07-29T10:23:44;101709.05;;;21.38;45.50
19789;BME280;10054;59.332;18.244;2022-07-29T10:26:13;101714.97;;;21.32;46.10
19789;BME280;10054;59.332;18.244;2022-07-29T10:28:42;101711.45;;;21.41;45.57
19789;BME280;10054;59.332;18.244;2022-07-29T10:31:15;101706.59;;;21.50;44.82
19789;BME280;10054;59.332;18.244;2022-07-29T10:37:03;101713.06;;;21.67;45.14
19789;BME280;10054;59.332;18.244;2022-07-29T10:44:46;101699.34;;;21.99;45.08
19789;BME280;10054;59.332;18.244;2022-07-29T10:47:25;101698.84;;;22.00;43.50
19789;BME280;10054;59.332;18.244;2022-07-29T10:50:02;101701.83;;;21.87;43.00
19789;BME280;10054;59.332;18.244;2022-07-29T10:52:55;101701.83;;;21.87;43.30
19789;BME280;10054;59.332;18.244;2022-07-29T10:55:34;101698.51;;;21.70;43.71
19789;BME280;10054;59.332;18.244;2022-07-29T10:58:19;101694.27;;;21.77;44.50
19789;BME280;10054;59.332;18.244;2022-07-29T11:00:49;101690.51;;;21.93;45.12
19789;BME280;10054;59.332;18.244;2022-07-29T11:03:44;101691.63;;;22.00;45.31
19789;BME280;10054;59.332;18.244;2022-07-29T11:06:14;101674.32;;;22.08;43.96
19789;BME280;10054;59.332;18.244;2022-07-29T11:08:42;101676.61;;;22.26;45.04
19789;BME280;10054;59.332;18.244;2022-07-29T11:13:59;101677.19;;;22.34;44.08
19789;BME280;10054;59.332;18.244;2022-07-29T11:16:58;101672.94;;;22.55;43.62
19789;BME280;10054;59.332;18.244;2022-07-29T11:21:45;101672.92;;;22.41;42.04
19789;BME280;10054;59.332;18.244;2022-07-29T11:24:20;101672.09;;;22.54;43.65
19789;BME280;10054;59.332;18.244;2022-07-29T11:27:10;101665.28;;;22.74;42.11
19789;BME280;10054;59.332;18.244;2022-07-29T11:30:03;101665.28;;;22.74;42.77
19789;BME280;10054;59.332;18.244;2022-07-29T11:32:13;101662.94;;;22.75;43.69
19789;BME280;10054;59.332;18.244;2022-07-29T11:34:47;101665.96;;;22.85;43.03
19789;BME280;10054;59.332;18.244;2022-07-29T11:37:18;101665.80;;;23.01;43.78
19789;BME280;10054;59.332;18.244;2022-07-29T11:45:07;101662.95;;;23.20;43.72
19789;BME280;10054;59.332;18.244;2022-07-29T11:47:40;101663.95;;;23.19;43.23
19789;BME280;10054;59.332;18.244;2022-07-29T11:50:11;101661.83;;;23.09;42.38
19789;BME280;10054;59.332;18.244;2022-07-29T11:52:42;101655.84;;;22.97;42.27
19789;BME280;10054;59.332;18.244;2022-07-29T11:55:18;101662.97;;;23.06;42.42
19789;BME280;10054;59.332;18.244;2022-07-29T11:57:55;101661.07;;;22.99;41.80
19789;BME280;10054;59.332;18.244;2022-07-29T12:00:31;101661.63;;;22.88;41.53
19789;BME280;10054;59.332;18.244;2022-07-29T12:03:03;101664.27;;;22.84;42.74
19789;BME280;10054;59.332;18.244;2022-07-29T12:05:44;101660.45;;;22.77;42.28
19789;BME280;10054;59.332;18.244;2022-07-29T12:08:18;101663.14;;;22.63;42.84
19789;BME280;10054;59.332;18.244;2022-07-29T12:10:46;101664.47;;;22.50;42.86
19789;BME280;10054;59.332;18.244;2022-07-29T12:13:23;101659.70;;;22.57;42.33
19789;BME280;10054;59.332;18.244;2022-07-29T12:15:55;101665.02;;;22.53;42.55
19789;BME280;10054;59.332;18.244;2022-07-29T12:18:24;101660.89;;;22.59;42.46
19789;BME280;10054;59.332;18.244;2022-07-29T12:21:00;101656.52;;;22.72;42.68
19789;BME280;10054;59.332;18.244;2022-07-29T12:23:33;101657.39;;;22.86;42.54
19789;BME280;10054;59.332;18.244;2022-07-29T12:26:05;101657.44;;;22.90;40.58
19789;BME280;10054;59.332;18.244;2022-07-29T12:28:39;101650.21;;;22.90;40.69
19789;BME280;10054;59.332;18.244;2022-07-29T12:31:13;101650.52;;;22.87;40.49
19789;BME280;10054;59.332;18.244;2022-07-29T12:33:42;101651.86;;;22.87;40.93
19789;BME280;10054;59.332;18.244;2022-07-29T12:36:11;101655.84;;;22.83;41.71
19789;BME280;10054;59.332;18.244;2022-07-29T12:38:41;101652.33;;;22.73;41.53
19789;BME280;10054;59.332;18.244;2022-07-29T12:41:10;101649.09;;;22.56;42.47
19789;BME280;10054;59.332;18.244;2022-07-29T12:43:51;101653.36;;;22.49;42.73
19789;BME280;10054;59.332;18.244;2022-07-29T12:46:15;101650.22;;;22.40;43.08
19789;BME280;10054;59.332;18.244;2022-07-29T12:48:44;101652.64;;;22.33;43.54
19789;BME280;10054;59.332;18.244;2022-07-29T12:51:13;101648.27;;;22.32;44.91
19789;BME280;10054;59.332;18.244;2022-07-29T12:54:11;101651.85;;;22.37;44.09
19789;BME280;10054;59.332;18.244;2022-07-29T12:56:34;101645.05;;;22.56;43.35
19789;BME280;10054;59.332;18.244;2022-07-29T12:59:17;101642.12;;;22.63;42.52
19789;BME280;10054;59.332;18.244;2022-07-29T13:01:49;101646.45;;;22.74;43.01
19789;BME280;10054;59.332;18.244;2022-07-29T13:04:30;101644.26;;;22.59;42.15
19789;BME280;10054;59.332;18.244;2022-07-29T13:07:01;101646.00;;;22.51;42.53
19789;BME280;10054;59.332;18.244;2022-07-29T13:09:42;101650.47;;;22.46;42.86
19789;BME280;10054;59.332;18.244;2022-07-29T13:12:12;101648.81;;;22.36;43.23
19789;BME280;10054;59.332;18.244;2022-07-29T13:14:44;101647.32;;;22.37;43.23
19789;BME280;10054;59.332;18.244;2022-07-29T13:17:18;101647.53;;;22.40;43.04
19789;BME280;10054;59.332;18.244;2022-07-29T13:19:50;101639.95;;;22.39;42.98
19789;BME280;10054;59.332;18.244;2022-07-29T13:22:21;101643.09;;;22.35;43.50
19789;BME280;10054;59.332;18.244;2022-07-29T13:24:54;101644.92;;;22.34;43.58
19789;BME280;10054;59.332;18.244;2022-07-29T13:27:23;101636.22;;;22.36;42.74
19789;BME280;10054;59.332;18.244;2022-07-29T13:29:53;101636.57;;;22.37;43.19
19789;BME280;10054;59.332;18.244;2022-07-29T13:32:25;101640.96;;;22.24;47.45